Terminal Aerodrome Forecast
Issued by NWS

Home | Current Version | Previous Version | Graphics & Text | Print | Product List | Glossary On
Versions: 1 2 3 4 5 6 7 8 9 10 11 12 13 14 15 16 17 18 19 20 21 22 23 24 25 26 27 28 29 30
000
FTUS43 KLOT 041720
TAFMDW
TAF
KMDW 041720Z 0418/0518 15008KT 3/4SM -SN BR OVC010
      TEMPO 0418/0420 1/2SM SN OVC005
     FM042000 15008KT 1/2SM SN OVC005
     FM042200 18005KT 1 1/2SM -SN BR OVC005
     FM050000 24007KT 5SM -SNDZ BR OVC006
     FM050300 24008KT P6SM OVC008
     FM051500 19010KT P6SM BKN008=

USA.gov is the U.S. government's official web portal to all federal, state and local government web resources and services.